Terminal Aerodrome Forecast
Issued by NWS Quad Cities IA IL

Home | Current Version | Previous Version | Text Only | Print | Product List | Glossary On
Versions: 1 2 3 4 5 6 7 8 9 10 11 12 13 14 15 16 17 18 19
000
FTUS43 KDVN 081730
TAFMLI
TAF
KMLI 081730Z 0818/0918 24010KT P6SM FEW050
     FM090100 25008KT P6SM BKN080
     FM090600 27012KT 5SM -SN OVC030
     FM090900 30015G25KT P6SM BKN025
     FM091200 32018G28KT P6SM BKN040=

USA.gov is the U.S. government's official web portal to all federal, state and local government web resources and services.